sensor_id;sensor_type;location;lat;lon;timestamp;temperature;humidity
56234;DHT22;42141;53.240;6.580;2023-06-04T00:02:03;10.50;99.90
56234;DHT22;42141;53.240;6.580;2023-06-04T00:04:29;10.50;99.90
56234;DHT22;42141;53.240;6.580;2023-06-04T00:06:55;11.80;99.90
56234;DHT22;42141;53.240;6.580;2023-06-04T00:09:21;10.40;99.90
56234;DHT22;42141;53.240;6.580;2023-06-04T00:11:47;10.40;99.90
56234;DHT22;42141;53.240;6.580;2023-06-04T00:14:13;10.40;99.90
56234;DHT22;42141;53.240;6.580;2023-06-04T00:16:40;10.40;99.90
56234;DHT22;42141;53.240;6.580;2023-06-04T00:19:06;10.40;99.90
56234;DHT22;42141;53.240;6.580;2023-06-04T00:21:32;10.30;99.90
56234;DHT22;42141;53.240;6.580;2023-06-04T00:23:59;10.30;99.90
56234;DHT22;42141;53.240;6.580;2023-06-04T00:26:24;10.30;99.90
56234;DHT22;42141;53.240;6.580;2023-06-04T00:28:50;10.20;99.90
56234;DHT22;42141;53.240;6.580;2023-06-04T00:31:16;10.80;99.90
56234;DHT22;42141;53.240;6.580;2023-06-04T00:33:42;10.20;99.90
56234;DHT22;42141;53.240;6.580;2023-06-04T00:36:08;11.00;99.90
56234;DHT22;42141;53.240;6.580;2023-06-04T00:38:33;10.20;99.90
56234;DHT22;42141;53.240;6.580;2023-06-04T00:40:59;10.10;99.90
56234;DHT22;42141;53.240;6.580;2023-06-04T00:43:25;10.10;99.90
56234;DHT22;42141;53.240;6.580;2023-06-04T00:45:53;10.10;99.90
56234;DHT22;42141;53.240;6.580;2023-06-04T00:48:19;10.10;99.90
56234;DHT22;42141;53.240;6.580;2023-06-04T00:50:47;10.00;99.90
56234;DHT22;42141;53.240;6.580;2023-06-04T00:53:14;10.00;99.90
56234;DHT22;42141;53.240;6.580;2023-06-04T00:55:39;11.40;99.90
56234;DHT22;42141;53.240;6.580;2023-06-04T00:58:05;9.90;99.90
56234;DHT22;42141;53.240;6.580;2023-06-04T01:00:31;9.90;99.90
56234;DHT22;42141;53.240;6.580;2023-06-04T01:02:58;9.90;99.90
56234;DHT22;42141;53.240;6.580;2023-06-04T01:05:37;9.90;99.90
56234;DHT22;42141;53.240;6.580;2023-06-04T01:08:06;9.80;99.90
56234;DHT22;42141;53.240;6.580;2023-06-04T01:10:35;9.90;99.90
56234;DHT22;42141;53.240;6.580;2023-06-04T01:13:01;10.50;99.90
56234;DHT22;42141;53.240;6.580;2023-06-04T01:15:26;9.80;99.90
56234;DHT22;42141;53.240;6.580;2023-06-04T01:17:57;10.90;99.90
56234;DHT22;42141;53.240;6.580;2023-06-04T01:20:41;10.10;99.90
56234;DHT22;42141;53.240;6.580;2023-06-04T01:23:37;9.70;99.90
56234;DHT22;42141;53.240;6.580;2023-06-04T01:26:09;9.70;99.90
56234;DHT22;42141;53.240;6.580;2023-06-04T01:28:36;10.20;99.90
56234;DHT22;42141;53.240;6.580;2023-06-04T01:31:03;10.80;99.90
56234;DHT22;42141;53.240;6.580;2023-06-04T01:33:29;10.60;99.90
56234;DHT22;42141;53.240;6.580;2023-06-04T01:35:55;10.70;99.90
56234;DHT22;42141;53.240;6.580;2023-06-04T01:38:21;9.50;99.90
56234;DHT22;42141;53.240;6.580;2023-06-04T01:40:47;9.60;99.90
56234;DHT22;42141;53.240;6.580;2023-06-04T01:43:13;9.40;99.90
56234;DHT22;42141;53.240;6.580;2023-06-04T01:45:39;9.40;99.90
56234;DHT22;42141;53.240;6.580;2023-06-04T01:48:05;9.70;99.90
56234;DHT22;42141;53.240;6.580;2023-06-04T01:50:31;9.30;99.90
56234;DHT22;42141;53.240;6.580;2023-06-04T01:52:57;9.30;99.90
56234;DHT22;42141;53.240;6.580;2023-06-04T01:55:23;9.30;99.90
56234;DHT22;42141;53.240;6.580;2023-06-04T01:57:51;9.20;99.90
56234;DHT22;42141;53.240;6.580;2023-06-04T02:00:17;10.50;99.90
56234;DHT22;42141;53.240;6.580;2023-06-04T02:02:46;9.20;99.90
56234;DHT22;42141;53.240;6.580;2023-06-04T02:05:15;9.20;99.90
56234;DHT22;42141;53.240;6.580;2023-06-04T02:07:42;10.60;99.90
56234;DHT22;42141;53.240;6.580;2023-06-04T02:10:13;10.40;99.90
56234;DHT22;42141;53.240;6.580;2023-06-04T02:12:51;10.30;99.90
56234;DHT22;42141;53.240;6.580;2023-06-04T02:15:17;10.20;99.90
56234;DHT22;42141;53.240;6.580;2023-06-04T02:17:43;9.80;99.90
56234;DHT22;42141;53.240;6.580;2023-06-04T02:20:11;9.10;99.90
56234;DHT22;42141;53.240;6.580;2023-06-04T02:22:37;9.10;99.90
56234;DHT22;42141;53.240;6.580;2023-06-04T02:25:04;9.10;99.90
56234;DHT22;42141;53.240;6.580;2023-06-04T02:27:30;9.00;99.90
56234;DHT22;42141;53.240;6.580;2023-06-04T02:29:56;9.10;99.90
56234;DHT22;42141;53.240;6.580;2023-06-04T02:32:22;9.40;99.90
56234;DHT22;42141;53.240;6.580;2023-06-04T02:34:47;9.90;99.90
56234;DHT22;42141;53.240;6.580;2023-06-04T02:37:14;9.00;99.90
56234;DHT22;42141;53.240;6.580;2023-06-04T02:39:40;9.40;99.90
56234;DHT22;42141;53.240;6.580;2023-06-04T02:42:06;9.10;99.90
56234;DHT22;42141;53.240;6.580;2023-06-04T02:44:32;9.10;99.90
56234;DHT22;42141;53.240;6.580;2023-06-04T02:46:58;9.10;99.90
56234;DHT22;42141;53.240;6.580;2023-06-04T02:49:24;9.10;99.90
56234;DHT22;42141;53.240;6.580;2023-06-04T02:51:50;10.30;99.90
56234;DHT22;42141;53.240;6.580;2023-06-04T02:54:16;9.00;99.90
56234;DHT22;42141;53.240;6.580;2023-06-04T02:56:42;10.50;99.90
56234;DHT22;42141;53.240;6.580;2023-06-04T02:59:09;9.00;99.90
56234;DHT22;42141;53.240;6.580;2023-06-04T03:01:35;9.00;99.90
56234;DHT22;42141;53.240;6.580;2023-06-04T03:04:01;10.10;99.90
56234;DHT22;42141;53.240;6.580;2023-06-04T03:06:30;8.90;99.90
56234;DHT22;42141;53.240;6.580;2023-06-04T03:09:00;8.90;99.90
56234;DHT22;42141;53.240;6.580;2023-06-04T03:11:27;8.90;99.90
56234;DHT22;42141;53.240;6.580;2023-06-04T03:13:53;8.90;99.90
56234;DHT22;42141;53.240;6.580;2023-06-04T03:16:18;8.90;99.90
56234;DHT22;42141;53.240;6.580;2023-06-04T03:18:46;8.90;99.90
56234;DHT22;42141;53.240;6.580;2023-06-04T03:21:11;8.90;99.90
56234;DHT22;42141;53.240;6.580;2023-06-04T03:23:37;9.90;99.90
56234;DHT22;42141;53.240;6.580;2023-06-04T03:26:04;8.90;99.90
56234;DHT22;42141;53.240;6.580;2023-06-04T03:28:31;8.90;99.90
56234;DHT22;42141;53.240;6.580;2023-06-04T03:30:57;8.90;99.90
56234;DHT22;42141;53.240;6.580;2023-06-04T03:33:24;9.10;99.90
56234;DHT22;42141;53.240;6.580;2023-06-04T03:35:52;10.50;99.90
56234;DHT22;42141;53.240;6.580;2023-06-04T03:38:19;8.80;99.90
56234;DHT22;42141;53.240;6.580;2023-06-04T03:40:45;9.70;99.90
56234;DHT22;42141;53.240;6.580;2023-06-04T03:43:11;8.90;99.90
56234;DHT22;42141;53.240;6.580;2023-06-04T03:45:37;9.40;99.90
56234;DHT22;42141;53.240;6.580;2023-06-04T03:48:03;9.70;99.90
56234;DHT22;42141;53.240;6.580;2023-06-04T03:50:29;9.90;99.90
56234;DHT22;42141;53.240;6.580;2023-06-04T03:52:55;9.00;99.90
56234;DHT22;42141;53.240;6.580;2023-06-04T03:55:21;10.90;99.90
56234;DHT22;42141;53.240;6.580;2023-06-04T03:57:47;9.00;99.90
56234;DHT22;42141;53.240;6.580;2023-06-04T04:00:14;9.00;99.90
56234;DHT22;42141;53.240;6.580;2023-06-04T04:02:40;9.10;99.90
56234;DHT22;42141;53.240;6.580;2023-06-04T04:05:06;9.10;99.90
56234;DHT22;42141;53.240;6.580;2023-06-04T04:07:32;9.10;99.90
56234;DHT22;42141;53.240;6.580;2023-06-04T04:09:58;9.20;99.90
56234;DHT22;42141;53.240;6.580;2023-06-04T04:12:24;10.10;99.90
56234;DHT22;42141;53.240;6.580;2023-06-04T04:14:49;9.60;99.90
56234;DHT22;42141;53.240;6.580;2023-06-04T04:17:15;9.30;99.90
56234;DHT22;42141;53.240;6.580;2023-06-04T04:19:41;9.30;99.90
56234;DHT22;42141;53.240;6.580;2023-06-04T04:22:07;9.30;99.90
56234;DHT22;42141;53.240;6.580;2023-06-04T04:24:34;9.00;99.90
56234;DHT22;42141;53.240;6.580;2023-06-04T04:27:03;9.50;99.90
56234;DHT22;42141;53.240;6.580;2023-06-04T04:29:30;9.30;99.90
56234;DHT22;42141;53.240;6.580;2023-06-04T04:32:00;9.70;99.90
56234;DHT22;42141;53.240;6.580;2023-06-04T04:34:26;9.70;99.90
56234;DHT22;42141;53.240;6.580;2023-06-04T04:36:52;9.70;99.90
56234;DHT22;42141;53.240;6.580;2023-06-04T04:39:22;8.10;99.90
56234;DHT22;42141;53.240;6.580;2023-06-04T04:41:50;9.90;99.90
56234;DHT22;42141;53.240;6.580;2023-06-04T04:44:15;9.90;99.90
56234;DHT22;42141;53.240;6.580;2023-06-04T04:46:41;10.00;99.90
56234;DHT22;42141;53.240;6.580;2023-06-04T04:49:07;10.10;99.90
56234;DHT22;42141;53.240;6.580;2023-06-04T04:51:32;10.20;99.90
56234;DHT22;42141;53.240;6.580;2023-06-04T04:53:59;10.30;99.90
56234;DHT22;42141;53.240;6.580;2023-06-04T04:56:28;10.50;99.90
56234;DHT22;42141;53.240;6.580;2023-06-04T04:58:55;10.60;99.90
56234;DHT22;42141;53.240;6.580;2023-06-04T05:01:21;10.70;99.90
56234;DHT22;42141;53.240;6.580;2023-06-04T05:03:48;10.80;99.90
56234;DHT22;42141;53.240;6.580;2023-06-04T05:06:13;10.90;99.90
56234;DHT22;42141;53.240;6.580;2023-06-04T05:08:39;11.00;99.90
56234;DHT22;42141;53.240;6.580;2023-06-04T05:11:05;11.90;99.90
56234;DHT22;42141;53.240;6.580;2023-06-04T05:13:31;9.70;99.90
56234;DHT22;42141;53.240;6.580;2023-06-04T05:15:57;11.40;99.90
56234;DHT22;42141;53.240;6.580;2023-06-04T05:18:23;11.50;99.90
56234;DHT22;42141;53.240;6.580;2023-06-04T05:20:55;11.60;99.90
56234;DHT22;42141;53.240;6.580;2023-06-04T05:23:20;11.70;99.90
56234;DHT22;42141;53.240;6.580;2023-06-04T05:25:46;11.90;99.90
56234;DHT22;42141;53.240;6.580;2023-06-04T05:28:14;12.00;99.90
56234;DHT22;42141;53.240;6.580;2023-06-04T05:30:40;12.10;99.90
56234;DHT22;42141;53.240;6.580;2023-06-04T05:33:07;12.20;99.90
56234;DHT22;42141;53.240;6.580;2023-06-04T05:35:46;12.30;99.90
56234;DHT22;42141;53.240;6.580;2023-06-04T05:38:14;12.40;99.90
56234;DHT22;42141;53.240;6.580;2023-06-04T05:40:44;12.50;99.90
56234;DHT22;42141;53.240;6.580;2023-06-04T05:43:10;12.60;99.90
56234;DHT22;42141;53.240;6.580;2023-06-04T05:45:36;12.80;99.90
56234;DHT22;42141;53.240;6.580;2023-06-04T05:48:03;12.80;99.90
56234;DHT22;42141;53.240;6.580;2023-06-04T05:50:28;11.80;99.90
56234;DHT22;42141;53.240;6.580;2023-06-04T05:52:54;13.00;99.90
56234;DHT22;42141;53.240;6.580;2023-06-04T05:55:20;13.10;99.90
56234;DHT22;42141;53.240;6.580;2023-06-04T05:57:46;13.20;99.90
56234;DHT22;42141;53.240;6.580;2023-06-04T06:00:12;13.30;99.90
56234;DHT22;42141;53.240;6.580;2023-06-04T06:02:39;13.40;99.90
56234;DHT22;42141;53.240;6.580;2023-06-04T06:05:07;13.50;99.90
56234;DHT22;42141;53.240;6.580;2023-06-04T06:07:35;13.60;99.90
56234;DHT22;42141;53.240;6.580;2023-06-04T06:10:02;13.70;99.90
56234;DHT22;42141;53.240;6.580;2023-06-04T06:12:28;13.80;99.90
56234;DHT22;42141;53.240;6.580;2023-06-04T06:14:54;13.90;99.90
56234;DHT22;42141;53.240;6.580;2023-06-04T06:17:19;13.90;99.90
56234;DHT22;42141;53.240;6.580;2023-06-04T06:19:45;14.00;99.90
56234;DHT22;42141;53.240;6.580;2023-06-04T06:22:11;14.10;99.90
56234;DHT22;42141;53.240;6.580;2023-06-04T06:24:37;14.20;99.90
56234;DHT22;42141;53.240;6.580;2023-06-04T06:27:03;14.30;99.90
56234;DHT22;42141;53.240;6.580;2023-06-04T06:29:28;14.30;99.90
56234;DHT22;42141;53.240;6.580;2023-06-04T06:31:55;14.40;99.90
56234;DHT22;42141;53.240;6.580;2023-06-04T06:34:20;14.50;99.90
56234;DHT22;42141;53.240;6.580;2023-06-04T06:36:46;14.60;99.90
56234;DHT22;42141;53.240;6.580;2023-06-04T06:39:12;14.70;99.90
56234;DHT22;42141;53.240;6.580;2023-06-04T06:41:38;14.80;99.90
56234;DHT22;42141;53.240;6.580;2023-06-04T06:44:04;14.90;99.90
56234;DHT22;42141;53.240;6.580;2023-06-04T06:46:30;15.00;99.90
56234;DHT22;42141;53.240;6.580;2023-06-04T06:48:56;15.00;99.90
56234;DHT22;42141;53.240;6.580;2023-06-04T06:51:22;15.10;99.90
56234;DHT22;42141;53.240;6.580;2023-06-04T06:53:49;15.10;99.90
56234;DHT22;42141;53.240;6.580;2023-06-04T06:56:16;15.20;99.90
56234;DHT22;42141;53.240;6.580;2023-06-04T06:58:46;15.30;99.90
56234;DHT22;42141;53.240;6.580;2023-06-04T07:01:13;15.50;99.90
56234;DHT22;42141;53.240;6.580;2023-06-04T07:03:39;15.60;99.90
56234;DHT22;42141;53.240;6.580;2023-06-04T07:06:07;15.70;99.90
56234;DHT22;42141;53.240;6.580;2023-06-04T07:08:33;15.70;99.90
56234;DHT22;42141;53.240;6.580;2023-06-04T07:11:00;15.90;99.90
56234;DHT22;42141;53.240;6.580;2023-06-04T07:13:27;15.90;99.90
56234;DHT22;42141;53.240;6.580;2023-06-04T07:15:53;16.00;99.90
56234;DHT22;42141;53.240;6.580;2023-06-04T07:18:19;16.10;99.90
56234;DHT22;42141;53.240;6.580;2023-06-04T07:20:44;16.20;99.90
56234;DHT22;42141;53.240;6.580;2023-06-04T07:23:10;16.30;99.90
56234;DHT22;42141;53.240;6.580;2023-06-04T07:25:36;16.40;99.90
56234;DHT22;42141;53.240;6.580;2023-06-04T07:28:02;16.50;99.90
56234;DHT22;42141;53.240;6.580;2023-06-04T07:30:30;16.50;99.90
56234;DHT22;42141;53.240;6.580;2023-06-04T07:32:58;16.60;99.90
56234;DHT22;42141;53.240;6.580;2023-06-04T07:35:24;16.80;99.90
56234;DHT22;42141;53.240;6.580;2023-06-04T07:37:50;16.80;99.90
56234;DHT22;42141;53.240;6.580;2023-06-04T07:40:16;16.80;99.90
56234;DHT22;42141;53.240;6.580;2023-06-04T07:42:43;16.80;99.90
56234;DHT22;42141;53.240;6.580;2023-06-04T07:45:09;16.90;99.90
56234;DHT22;42141;53.240;6.580;2023-06-04T07:47:38;17.00;99.90
56234;DHT22;42141;53.240;6.580;2023-06-04T07:50:04;17.10;99.90
56234;DHT22;42141;53.240;6.580;2023-06-04T07:52:31;17.10;99.90
56234;DHT22;42141;53.240;6.580;2023-06-04T07:54:57;17.10;99.90
56234;DHT22;42141;53.240;6.580;2023-06-04T07:57:23;17.60;99.90
56234;DHT22;42141;53.240;6.580;2023-06-04T07:59:50;17.20;99.90
56234;DHT22;42141;53.240;6.580;2023-06-04T08:02:16;17.40;99.90
56234;DHT22;42141;53.240;6.580;2023-06-04T08:04:42;17.40;99.90
56234;DHT22;42141;53.240;6.580;2023-06-04T08:07:08;17.50;99.90
56234;DHT22;42141;53.240;6.580;2023-06-04T08:09:33;17.60;99.90
56234;DHT22;42141;53.240;6.580;2023-06-04T08:12:00;17.70;99.90
56234;DHT22;42141;53.240;6.580;2023-06-04T08:14:25;17.70;99.90
56234;DHT22;42141;53.240;6.580;2023-06-04T08:16:55;17.80;99.90
56234;DHT22;42141;53.240;6.580;2023-06-04T08:19:21;17.90;99.90
56234;DHT22;42141;53.240;6.580;2023-06-04T08:21:49;18.00;99.90
56234;DHT22;42141;53.240;6.580;2023-06-04T08:24:15;18.00;99.90
56234;DHT22;42141;53.240;6.580;2023-06-04T08:26:41;18.00;99.90
56234;DHT22;42141;53.240;6.580;2023-06-04T08:29:07;18.10;99.90
56234;DHT22;42141;53.240;6.580;2023-06-04T08:31:33;18.10;99.90
56234;DHT22;42141;53.240;6.580;2023-06-04T08:33:59;18.10;99.90
56234;DHT22;42141;53.240;6.580;2023-06-04T08:36:25;18.20;99.90
56234;DHT22;42141;53.240;6.580;2023-06-04T08:38:51;18.30;99.90
56234;DHT22;42141;53.240;6.580;2023-06-04T08:43:50;18.50;99.90
56234;DHT22;42141;53.240;6.580;2023-06-04T08:46:16;18.60;99.90
56234;DHT22;42141;53.240;6.580;2023-06-04T08:48:42;18.70;99.90
56234;DHT22;42141;53.240;6.580;2023-06-04T08:51:09;18.70;99.90
56234;DHT22;42141;53.240;6.580;2023-06-04T08:53:36;18.60;99.90
56234;DHT22;42141;53.240;6.580;2023-06-04T08:56:03;18.50;99.90
56234;DHT22;42141;53.240;6.580;2023-06-04T08:58:32;18.50;99.90
56234;DHT22;42141;53.240;6.580;2023-06-04T09:01:01;18.50;99.90
56234;DHT22;42141;53.240;6.580;2023-06-04T09:03:31;18.50;99.90
56234;DHT22;42141;53.240;6.580;2023-06-04T09:05:59;18.60;99.90
56234;DHT22;42141;53.240;6.580;2023-06-04T09:08:26;18.60;99.90
56234;DHT22;42141;53.240;6.580;2023-06-04T09:10:54;18.70;99.90
56234;DHT22;42141;53.240;6.580;2023-06-04T09:13:22;18.80;99.90
56234;DHT22;42141;53.240;6.580;2023-06-04T09:16:03;19.00;99.90
56234;DHT22;42141;53.240;6.580;2023-06-04T09:18:30;19.20;99.90
56234;DHT22;42141;53.240;6.580;2023-06-04T09:21:03;19.10;99.90
56234;DHT22;42141;53.240;6.580;2023-06-04T09:23:29;19.30;99.90
56234;DHT22;42141;53.240;6.580;2023-06-04T09:25:55;19.40;99.90
56234;DHT22;42141;53.240;6.580;2023-06-04T09:28:29;19.50;99.90
56234;DHT22;42141;53.240;6.580;2023-06-04T09:30:55;19.50;99.90
56234;DHT22;42141;53.240;6.580;2023-06-04T09:33:21;19.60;99.90
56234;DHT22;42141;53.240;6.580;2023-06-04T09:35:54;19.60;99.90
56234;DHT22;42141;53.240;6.580;2023-06-04T09:38:20;19.50;99.90
56234;DHT22;42141;53.240;6.580;2023-06-04T09:40:47;19.30;99.90
56234;DHT22;42141;53.240;6.580;2023-06-04T09:43:24;19.30;99.90
56234;DHT22;42141;53.240;6.580;2023-06-04T09:45:49;19.40;99.80
56234;DHT22;42141;53.240;6.580;2023-06-04T09:48:22;19.50;99.90
56234;DHT22;42141;53.240;6.580;2023-06-04T09:50:48;19.50;99.60
56234;DHT22;42141;53.240;6.580;2023-06-04T09:53:20;19.50;99.90
56234;DHT22;42141;53.240;6.580;2023-06-04T09:55:58;19.50;99.90
56234;DHT22;42141;53.240;6.580;2023-06-04T09:58:26;19.60;99.90
56234;DHT22;42141;53.240;6.580;2023-06-04T10:00:54;19.70;99.90
56234;DHT22;42141;53.240;6.580;2023-06-04T10:03:21;19.80;99.70
56234;DHT22;42141;53.240;6.580;2023-06-04T10:05:53;19.70;99.40
56234;DHT22;42141;53.240;6.580;2023-06-04T10:08:22;19.80;99.50
56234;DHT22;42141;53.240;6.580;2023-06-04T10:10:51;19.80;99.10
56234;DHT22;42141;53.240;6.580;2023-06-04T10:13:19;19.90;99.20
56234;DHT22;42141;53.240;6.580;2023-06-04T10:15:48;19.90;99.10
56234;DHT22;42141;53.240;6.580;2023-06-04T10:18:15;19.90;99.00
56234;DHT22;42141;53.240;6.580;2023-06-04T10:20:41;20.00;99.00
56234;DHT22;42141;53.240;6.580;2023-06-04T10:23:07;20.00;98.80
56234;DHT22;42141;53.240;6.580;2023-06-04T10:25:36;20.10;98.60
56234;DHT22;42141;53.240;6.580;2023-06-04T10:28:03;20.20;98.50
56234;DHT22;42141;53.240;6.580;2023-06-04T10:30:30;20.20;98.40
56234;DHT22;42141;53.240;6.580;2023-06-04T10:32:59;20.20;98.30
56234;DHT22;42141;53.240;6.580;2023-06-04T10:35:35;20.30;98.10
56234;DHT22;42141;53.240;6.580;2023-06-04T10:38:12;20.40;97.40
56234;DHT22;42141;53.240;6.580;2023-06-04T10:40:42;20.40;98.00
56234;DHT22;42141;53.240;6.580;2023-06-04T10:43:13;20.50;97.90
56234;DHT22;42141;53.240;6.580;2023-06-04T10:45:40;20.70;97.70
56234;DHT22;42141;53.240;6.580;2023-06-04T10:48:08;20.90;97.40
56234;DHT22;42141;53.240;6.580;2023-06-04T10:50:35;20.80;97.30
56234;DHT22;42141;53.240;6.580;2023-06-04T10:53:01;20.70;97.20
56234;DHT22;42141;53.240;6.580;2023-06-04T10:55:29;20.70;97.20
56234;DHT22;42141;53.240;6.580;2023-06-04T10:58:00;20.70;97.20
56234;DHT22;42141;53.240;6.580;2023-06-04T11:00:42;20.90;96.60
56234;DHT22;42141;53.240;6.580;2023-06-04T11:03:12;20.70;96.30
56234;DHT22;42141;53.240;6.580;2023-06-04T11:05:40;20.70;96.60
56234;DHT22;42141;53.240;6.580;2023-06-04T11:08:08;20.70;96.50
56234;DHT22;42141;53.240;6.580;2023-06-04T11:10:43;20.80;96.60
56234;DHT22;42141;53.240;6.580;2023-06-04T11:13:09;20.80;96.20
56234;DHT22;42141;53.240;6.580;2023-06-04T11:15:46;20.80;96.20
56234;DHT22;42141;53.240;6.580;2023-06-04T11:18:18;20.90;95.80
56234;DHT22;42141;53.240;6.580;2023-06-04T11:20:45;20.90;95.80
56234;DHT22;42141;53.240;6.580;2023-06-04T11:23:13;21.00;95.90
56234;DHT22;42141;53.240;6.580;2023-06-04T11:25:39;21.10;95.60
56234;DHT22;42141;53.240;6.580;2023-06-04T11:28:04;21.10;95.40
56234;DHT22;42141;53.240;6.580;2023-06-04T11:30:30;21.20;95.30
56234;DHT22;42141;53.240;6.580;2023-06-04T11:33:03;21.20;95.30
56234;DHT22;42141;53.240;6.580;2023-06-04T11:35:30;21.20;94.80
56234;DHT22;42141;53.240;6.580;2023-06-04T11:37:57;21.10;95.00
56234;DHT22;42141;53.240;6.580;2023-06-04T11:40:24;21.00;95.10
56234;DHT22;42141;53.240;6.580;2023-06-04T11:42:52;21.00;95.00
56234;DHT22;42141;53.240;6.580;2023-06-04T11:45:20;21.00;94.70
56234;DHT22;42141;53.240;6.580;2023-06-04T11:50:13;21.20;94.80
56234;DHT22;42141;53.240;6.580;2023-06-04T11:52:39;21.30;94.70
56234;DHT22;42141;53.240;6.580;2023-06-04T11:55:08;21.40;94.70
56234;DHT22;42141;53.240;6.580;2023-06-04T11:57:35;21.50;94.50
56234;DHT22;42141;53.240;6.580;2023-06-04T12:00:01;21.50;94.20
56234;DHT22;42141;53.240;6.580;2023-06-04T12:02:27;21.50;93.90
56234;DHT22;42141;53.240;6.580;2023-06-04T12:04:53;21.60;94.00
56234;DHT22;42141;53.240;6.580;2023-06-04T12:07:22;21.70;93.80
56234;DHT22;42141;53.240;6.580;2023-06-04T12:09:50;21.60;93.00
56234;DHT22;42141;53.240;6.580;2023-06-04T12:12:21;21.60;93.30
56234;DHT22;42141;53.240;6.580;2023-06-04T12:14:57;21.60;93.20
56234;DHT22;42141;53.240;6.580;2023-06-04T12:17:23;21.70;93.10
56234;DHT22;42141;53.240;6.580;2023-06-04T12:19:50;21.70;92.90
56234;DHT22;42141;53.240;6.580;2023-06-04T12:22:16;21.70;92.90
56234;DHT22;42141;53.240;6.580;2023-06-04T12:27:14;21.70;92.70
56234;DHT22;42141;53.240;6.580;2023-06-04T12:29:40;21.80;92.90
56234;DHT22;42141;53.240;6.580;2023-06-04T12:32:08;21.80;92.70
56234;DHT22;42141;53.240;6.580;2023-06-04T12:34:35;21.90;92.70
56234;DHT22;42141;53.240;6.580;2023-06-04T12:37:01;22.00;93.00
56234;DHT22;42141;53.240;6.580;2023-06-04T12:39:29;22.20;93.20
56234;DHT22;42141;53.240;6.580;2023-06-04T12:41:58;22.20;93.00
56234;DHT22;42141;53.240;6.580;2023-06-04T12:44:23;22.10;92.80
56234;DHT22;42141;53.240;6.580;2023-06-04T12:46:50;22.10;92.60
56234;DHT22;42141;53.240;6.580;2023-06-04T12:49:15;22.10;92.40
56234;DHT22;42141;53.240;6.580;2023-06-04T12:51:41;22.20;92.30
56234;DHT22;42141;53.240;6.580;2023-06-04T12:54:07;22.20;92.20
56234;DHT22;42141;53.240;6.580;2023-06-04T12:56:33;22.30;92.20
56234;DHT22;42141;53.240;6.580;2023-06-04T12:58:59;22.40;92.20
56234;DHT22;42141;53.240;6.580;2023-06-04T13:01:25;22.40;92.00
56234;DHT22;42141;53.240;6.580;2023-06-04T13:03:51;22.30;91.70
56234;DHT22;42141;53.240;6.580;2023-06-04T13:06:16;22.20;91.80
56234;DHT22;42141;53.240;6.580;2023-06-04T13:08:42;22.20;91.80
56234;DHT22;42141;53.240;6.580;2023-06-04T13:11:10;22.20;91.70
56234;DHT22;42141;53.240;6.580;2023-06-04T13:13:37;22.30;91.80
56234;DHT22;42141;53.240;6.580;2023-06-04T13:16:03;22.20;91.70
56234;DHT22;42141;53.240;6.580;2023-06-04T13:18:29;22.10;91.60
56234;DHT22;42141;53.240;6.580;2023-06-04T13:20:55;22.00;91.40
56234;DHT22;42141;53.240;6.580;2023-06-04T13:23:22;21.90;91.30
56234;DHT22;42141;53.240;6.580;2023-06-04T13:25:48;21.80;91.40
56234;DHT22;42141;53.240;6.580;2023-06-04T13:28:14;22.00;91.50
56234;DHT22;42141;53.240;6.580;2023-06-04T13:30:41;21.90;91.10
56234;DHT22;42141;53.240;6.580;2023-06-04T13:33:07;22.00;91.30
56234;DHT22;42141;53.240;6.580;2023-06-04T13:35:33;22.10;91.40
56234;DHT22;42141;53.240;6.580;2023-06-04T13:37:58;22.20;91.10
56234;DHT22;42141;53.240;6.580;2023-06-04T13:40:24;22.00;91.30
56234;DHT22;42141;53.240;6.580;2023-06-04T13:42:50;22.00;91.20
56234;DHT22;42141;53.240;6.580;2023-06-04T13:45:16;21.90;91.20
56234;DHT22;42141;53.240;6.580;2023-06-04T13:47:47;22.00;91.30
56234;DHT22;42141;53.240;6.580;2023-06-04T13:50:14;22.00;91.30
56234;DHT22;42141;53.240;6.580;2023-06-04T13:52:40;22.00;91.30
56234;DHT22;42141;53.240;6.580;2023-06-04T13:55:06;21.90;91.20
56234;DHT22;42141;53.240;6.580;2023-06-04T13:57:32;21.80;91.20
56234;DHT22;42141;53.240;6.580;2023-06-04T13:59:57;21.70;91.20
56234;DHT22;42141;53.240;6.580;2023-06-04T14:02:23;21.60;91.10
56234;DHT22;42141;53.240;6.580;2023-06-04T14:04:53;21.60;91.20
56234;DHT22;42141;53.240;6.580;2023-06-04T14:07:20;21.60;91.50
56234;DHT22;42141;53.240;6.580;2023-06-04T14:09:46;22.20;91.30
56234;DHT22;42141;53.240;6.580;2023-06-04T14:12:11;21.80;91.10
56234;DHT22;42141;53.240;6.580;2023-06-04T14:14:38;22.00;91.30
56234;DHT22;42141;53.240;6.580;2023-06-04T14:17:05;22.10;91.10
56234;DHT22;42141;53.240;6.580;2023-06-04T14:19:35;22.30;90.80
56234;DHT22;42141;53.240;6.580;2023-06-04T14:22:02;22.30;90.30
56234;DHT22;42141;53.240;6.580;2023-06-04T14:24:27;22.00;90.20
56234;DHT22;42141;53.240;6.580;2023-06-04T14:26:53;21.80;90.40
56234;DHT22;42141;53.240;6.580;2023-06-04T14:29:19;21.70;90.70
56234;DHT22;42141;53.240;6.580;2023-06-04T14:31:45;21.70;90.50
56234;DHT22;42141;53.240;6.580;2023-06-04T14:34:11;21.70;90.60
56234;DHT22;42141;53.240;6.580;2023-06-04T14:36:37;21.70;90.60
56234;DHT22;42141;53.240;6.580;2023-06-04T14:39:02;21.70;90.60
56234;DHT22;42141;53.240;6.580;2023-06-04T14:41:28;21.60;90.60
56234;DHT22;42141;53.240;6.580;2023-06-04T14:43:54;21.50;90.70
56234;DHT22;42141;53.240;6.580;2023-06-04T14:46:20;21.60;90.80
56234;DHT22;42141;53.240;6.580;2023-06-04T14:48:45;21.60;91.00
56234;DHT22;42141;53.240;6.580;2023-06-04T14:51:11;21.60;90.80
56234;DHT22;42141;53.240;6.580;2023-06-04T14:53:37;21.60;91.00
56234;DHT22;42141;53.240;6.580;2023-06-04T14:56:06;21.50;90.90
56234;DHT22;42141;53.240;6.580;2023-06-04T14:58:32;21.40;91.20
56234;DHT22;42141;53.240;6.580;2023-06-04T15:01:01;21.20;90.90
56234;DHT22;42141;53.240;6.580;2023-06-04T15:03:29;21.20;91.20
56234;DHT22;42141;53.240;6.580;2023-06-04T15:05:56;21.20;91.30
56234;DHT22;42141;53.240;6.580;2023-06-04T15:08:21;21.10;91.50
56234;DHT22;42141;53.240;6.580;2023-06-04T15:10:47;20.90;91.50
56234;DHT22;42141;53.240;6.580;2023-06-04T15:13:13;20.90;91.70
56234;DHT22;42141;53.240;6.580;2023-06-04T15:15:39;21.00;91.80
56234;DHT22;42141;53.240;6.580;2023-06-04T15:18:05;20.80;91.60
56234;DHT22;42141;53.240;6.580;2023-06-04T15:20:34;20.60;91.80
56234;DHT22;42141;53.240;6.580;2023-06-04T15:22:59;20.40;92.00
56234;DHT22;42141;53.240;6.580;2023-06-04T15:25:25;20.30;92.10
56234;DHT22;42141;53.240;6.580;2023-06-04T15:27:51;20.00;92.10
56234;DHT22;42141;53.240;6.580;2023-06-04T15:30:17;19.70;92.30
56234;DHT22;42141;53.240;6.580;2023-06-04T15:32:44;19.60;92.50
56234;DHT22;42141;53.240;6.580;2023-06-04T15:35:10;19.50;92.60
56234;DHT22;42141;53.240;6.580;2023-06-04T15:37:36;19.40;92.60
56234;DHT22;42141;53.240;6.580;2023-06-04T15:40:03;19.60;92.70
56234;DHT22;42141;53.240;6.580;2023-06-04T15:42:32;19.50;92.40